createdAt,value
2022-11-28T00:01:19.278Z,3.60
2022-11-28T00:03:46.135Z,3.65
2022-11-28T00:06:13.033Z,3.58
2022-11-28T00:08:39.929Z,3.60
2022-11-28T00:11:07.515Z,3.65
2022-11-28T00:13:34.405Z,3.63
2022-11-28T00:16:02.000Z,3.61
2022-11-28T00:18:29.085Z,3.60
2022-11-28T00:21:03.061Z,3.59
2022-11-28T00:23:30.548Z,3.57
2022-11-28T00:26:01.024Z,3.56
2022-11-28T00:28:27.764Z,3.53
2022-11-28T00:30:54.763Z,3.51
2022-11-28T00:33:22.000Z,3.58
2022-11-28T00:35:48.767Z,3.57
2022-11-28T00:38:15.726Z,3.61
2022-11-28T00:40:45.649Z,3.61
2022-11-28T00:43:13.118Z,3.71
2022-11-28T00:45:39.962Z,3.77
2022-11-28T00:48:06.776Z,3.68
2022-11-28T00:50:33.426Z,3.70
2022-11-28T00:53:00.424Z,3.78
2022-11-28T00:55:27.442Z,3.77
2022-11-28T00:57:55.391Z,3.76
2022-11-28T01:00:22.370Z,3.80
2022-11-28T01:02:49.368Z,3.82
2022-11-28T01:05:16.313Z,3.82
2022-11-28T01:07:43.172Z,3.80
2022-11-28T01:10:11.231Z,3.86
2022-11-28T01:12:37.990Z,3.87
2022-11-28T01:15:06.247Z,3.87
2022-11-28T01:17:33.274Z,3.86
2022-11-28T01:20:00.028Z,3.88
2022-11-28T01:22:26.720Z,3.84
2022-11-28T01:24:53.462Z,3.83
2022-11-28T01:27:20.149Z,3.72
2022-11-28T01:29:46.799Z,3.73
2022-11-28T01:32:13.406Z,3.66
2022-11-28T01:34:40.219Z,3.64
2022-11-28T01:37:07.125Z,3.64
2022-11-28T01:39:34.050Z,3.67
2022-11-28T01:42:01.502Z,3.75
2022-11-28T01:44:28.200Z,3.72
2022-11-28T01:46:54.958Z,3.68
2022-11-28T01:49:35.274Z,3.68
2022-11-28T01:52:04.330Z,3.69
2022-11-28T01:54:31.230Z,3.72
2022-11-28T01:57:01.470Z,3.69
2022-11-28T01:59:29.434Z,3.68
2022-11-28T02:01:56.194Z,3.72
2022-11-28T02:04:23.048Z,3.65
2022-11-28T02:06:49.950Z,3.64
2022-11-28T02:09:16.764Z,3.66
2022-11-28T02:11:58.850Z,3.70
2022-11-28T02:14:31.235Z,3.69
2022-11-28T02:17:15.079Z,3.68
2022-11-28T02:20:00.463Z,3.63
2022-11-28T02:22:38.516Z,3.62
2022-11-28T02:25:08.938Z,3.72
2022-11-28T02:27:39.370Z,3.67
2022-11-28T02:30:14.765Z,3.73
2022-11-28T02:32:42.572Z,3.76
2022-11-28T02:35:12.483Z,3.81
2022-11-28T02:37:39.194Z,3.84
2022-11-28T02:40:09.055Z,3.81
2022-11-28T02:42:49.293Z,3.81
2022-11-28T02:45:37.483Z,3.81
2022-11-28T02:54:00.394Z,3.34
2022-11-28T02:56:27.008Z,3.21
2022-11-28T02:58:53.883Z,3.14
2022-11-28T03:01:26.616Z,3.10
2022-11-28T03:03:55.893Z,3.10
2022-11-28T03:06:41.917Z,3.02
2022-11-28T03:09:30.598Z,2.94
2022-11-28T03:12:29.763Z,2.86
2022-11-28T03:15:10.244Z,2.87
2022-11-28T03:17:48.814Z,2.85
2022-11-28T03:20:31.801Z,2.83
2022-11-28T03:26:02.306Z,2.86
2022-11-28T03:28:32.155Z,2.94
2022-11-28T03:31:07.423Z,2.92
2022-11-28T03:33:35.258Z,2.95
2022-11-28T03:36:04.207Z,2.97
2022-11-28T03:38:33.204Z,3.04
2022-11-28T03:41:00.583Z,3.11
2022-11-28T03:43:28.012Z,3.12
2022-11-28T03:45:55.997Z,3.16
2022-11-28T03:48:27.514Z,3.17
2022-11-28T03:50:56.196Z,3.22
2022-11-28T03:53:23.974Z,3.25
2022-11-28T03:55:52.774Z,3.25
2022-11-28T03:58:22.432Z,3.19
2022-11-28T04:00:51.721Z,3.20
2022-11-28T04:03:22.858Z,3.22
2022-11-28T04:06:06.683Z,3.21
2022-11-28T04:08:36.129Z,3.20
2022-11-28T04:11:02.661Z,3.18
2022-11-28T04:13:33.228Z,3.15
2022-11-28T04:16:02.870Z,3.16
2022-11-28T04:18:48.186Z,3.10
2022-11-28T04:21:30.044Z,3.08
2022-11-28T04:23:57.303Z,3.04
2022-11-28T04:26:28.153Z,3.03
2022-11-28T04:28:54.733Z,3.07
2022-11-28T04:31:22.672Z,3.08
2022-11-28T04:33:50.439Z,3.07
2022-11-28T04:36:17.174Z,3.08
2022-11-28T04:38:43.817Z,3.13
2022-11-28T04:41:12.271Z,3.09
2022-11-28T04:43:43.329Z,3.18
2022-11-28T04:46:12.448Z,3.19
2022-11-28T04:48:39.103Z,3.21
2022-11-28T04:51:22.009Z,3.23
2022-11-28T04:53:59.577Z,3.32
2022-11-28T04:56:28.284Z,3.34
2022-11-28T04:58:55.191Z,3.30
2022-11-28T05:01:25.901Z,3.31
2022-11-28T05:03:52.516Z,3.30
2022-11-28T05:06:24.296Z,3.32
2022-11-28T05:08:50.962Z,3.34
2022-11-28T05:11:17.750Z,3.39
2022-11-28T05:13:44.897Z,3.44
2022-11-28T05:16:13.084Z,3.36
2022-11-28T05:18:39.831Z,3.31
2022-11-28T05:21:09.066Z,3.29
2022-11-28T05:23:39.368Z,3.27
2022-11-28T05:26:15.617Z,3.29
2022-11-28T05:28:46.388Z,3.28
2022-11-28T05:31:13.613Z,3.27
2022-11-28T05:33:40.787Z,3.25
2022-11-28T05:36:12.620Z,3.27
2022-11-28T05:38:39.897Z,3.32
2022-11-28T05:41:07.229Z,3.30
2022-11-28T05:43:33.882Z,3.33
2022-11-28T05:46:00.549Z,3.45
2022-11-28T05:48:27.254Z,3.40
2022-11-28T05:50:53.999Z,3.43
2022-11-28T05:53:21.842Z,3.39
2022-11-28T05:55:48.592Z,3.31
2022-11-28T05:58:15.449Z,3.22
2022-11-28T06:00:42.181Z,3.17
2022-11-28T06:03:08.843Z,3.16
2022-11-28T06:05:42.586Z,3.11
2022-11-28T06:08:11.091Z,3.16
2022-11-28T06:10:37.854Z,3.15
2022-11-28T06:13:04.640Z,3.19
2022-11-28T06:15:36.217Z,3.13
2022-11-28T06:18:04.299Z,3.14
2022-11-28T06:20:30.995Z,3.09
2022-11-28T06:22:57.748Z,3.11
2022-11-28T06:25:24.519Z,3.04
2022-11-28T06:27:51.166Z,2.99
2022-11-28T06:30:17.859Z,3.00
2022-11-28T06:32:44.377Z,2.97
2022-11-28T06:35:11.027Z,2.91
2022-11-28T06:37:39.820Z,2.86
2022-11-28T06:40:07.034Z,2.84
2022-11-28T06:49:30.072Z,2.88
2022-11-28T06:51:56.791Z,2.87
2022-11-28T06:54:23.535Z,2.86
2022-11-28T06:56:50.656Z,2.90
2022-11-28T06:59:17.194Z,2.95
2022-11-28T07:01:43.771Z,2.93
2022-11-28T07:04:10.398Z,2.91
2022-11-28T07:06:37.661Z,2.91
2022-11-28T07:09:04.531Z,2.90
2022-11-28T07:11:32.041Z,2.88
2022-11-28T07:13:59.174Z,2.90
2022-11-28T07:16:27.495Z,2.90
2022-11-28T07:18:54.258Z,2.94
2022-11-28T07:21:20.831Z,2.93
2022-11-28T07:23:47.745Z,2.94
2022-11-28T07:26:15.651Z,2.99
2022-11-28T07:28:42.588Z,3.03
2022-11-28T07:31:13.608Z,3.07
2022-11-28T07:33:40.806Z,3.13
2022-11-28T07:36:08.539Z,3.09
2022-11-28T07:38:35.301Z,3.06
2022-11-28T07:41:08.669Z,3.07
2022-11-28T07:43:35.466Z,3.08
2022-11-28T07:46:06.878Z,3.07
2022-11-28T07:48:33.783Z,3.12
2022-11-28T07:51:00.624Z,3.10
2022-11-28T07:53:27.375Z,3.09
2022-11-28T07:55:54.095Z,3.13
2022-11-28T07:58:22.369Z,3.16
2022-11-28T08:00:49.195Z,3.18
2022-11-28T08:03:16.206Z,3.20
2022-11-28T08:05:49.556Z,3.34
2022-11-28T08:08:17.706Z,3.38
2022-11-28T08:10:44.627Z,3.46
2022-11-28T08:13:11.299Z,3.44
2022-11-28T08:15:39.152Z,3.43
2022-11-28T08:18:06.412Z,3.51
2022-11-28T08:20:33.613Z,3.52
2022-11-28T08:23:01.773Z,3.53
2022-11-28T08:25:28.808Z,3.55
2022-11-28T08:27:55.619Z,3.56
2022-11-28T08:30:22.553Z,3.60
2022-11-28T08:32:49.304Z,3.64
2022-11-28T08:35:15.968Z,3.59
2022-11-28T08:37:42.846Z,3.59
2022-11-28T08:40:09.756Z,3.58
2022-11-28T08:42:39.041Z,3.61
2022-11-28T08:45:07.317Z,3.62
2022-11-28T08:47:35.210Z,3.61
2022-11-28T08:50:02.940Z,3.63
2022-11-28T08:52:30.303Z,3.66
2022-11-28T08:54:57.081Z,3.74
2022-11-28T08:57:24.350Z,3.79
2022-11-28T08:59:52.324Z,3.82
2022-11-28T09:02:23.236Z,3.87
2022-11-28T09:04:52.528Z,3.92
2022-11-28T09:07:19.356Z,3.96
2022-11-28T09:09:46.580Z,3.96
2022-11-28T09:12:13.317Z,3.87
2022-11-28T09:14:40.077Z,3.93
2022-11-28T09:17:06.984Z,3.80
2022-11-28T09:19:34.054Z,3.73
2022-11-28T09:22:00.773Z,3.84
2022-11-28T09:27:06.616Z,3.78
2022-11-28T09:29:33.323Z,3.86
2022-11-28T09:32:00.150Z,3.82
2022-11-28T09:34:27.869Z,3.90
2022-11-28T09:36:54.580Z,3.98
2022-11-28T09:39:22.448Z,4.06
2022-11-28T09:41:54.898Z,4.14
2022-11-28T09:44:27.316Z,4.25
2022-11-28T09:46:55.308Z,4.26
2022-11-28T09:49:29.028Z,4.23
2022-11-28T09:51:59.931Z,4.20
2022-11-28T09:54:33.134Z,4.26
2022-11-28T09:56:59.792Z,4.34
2022-11-28T09:59:27.806Z,4.36
2022-11-28T10:02:09.996Z,4.29
2022-11-28T10:04:37.320Z,4.29
2022-11-28T10:07:07.053Z,4.24
2022-11-28T10:09:43.235Z,4.34
2022-11-28T10:12:13.027Z,4.37
2022-11-28T10:14:46.618Z,4.38
2022-11-28T10:17:23.055Z,4.35
2022-11-28T10:19:55.120Z,4.27
2022-11-28T10:22:42.168Z,4.17
2022-11-28T10:25:15.033Z,4.22
2022-11-28T10:27:41.962Z,4.21
2022-11-28T10:30:11.344Z,4.19
2022-11-28T10:32:41.705Z,4.25
2022-11-28T10:35:17.782Z,4.30
2022-11-28T10:37:44.468Z,4.40
2022-11-28T10:40:20.528Z,4.45
2022-11-28T10:43:01.820Z,4.49
2022-11-28T10:45:46.926Z,4.41
2022-11-28T10:48:39.063Z,4.46
2022-11-28T10:51:13.456Z,4.48
2022-11-28T10:53:56.847Z,4.37
2022-11-28T10:56:32.645Z,4.40
2022-11-28T10:59:02.915Z,4.44
2022-11-28T11:01:35.340Z,4.50
2022-11-28T11:04:02.159Z,4.45
2022-11-28T11:06:40.783Z,4.56
2022-11-28T11:09:11.245Z,4.65
2022-11-28T11:11:38.472Z,4.61
2022-11-28T11:14:06.518Z,4.57
2022-11-28T11:16:49.905Z,4.55
2022-11-28T11:19:30.188Z,4.63
2022-11-28T11:22:00.932Z,4.66
2022-11-28T11:24:28.376Z,4.64
2022-11-28T11:26:55.654Z,4.65
2022-11-28T11:29:35.760Z,4.58
2022-11-28T11:32:06.922Z,4.45
2022-11-28T11:34:54.204Z,4.43
2022-11-28T11:37:34.436Z,4.45
2022-11-28T11:40:01.474Z,4.47
2022-11-28T11:42:29.836Z,4.52
2022-11-28T11:44:57.198Z,4.52
2022-11-28T11:47:39.900Z,4.53
2022-11-28T11:50:06.993Z,4.60
2022-11-28T11:52:33.743Z,4.66
2022-11-28T11:55:07.237Z,4.56
2022-11-28T11:57:37.964Z,4.64
2022-11-28T12:00:13.784Z,4.62
2022-11-28T12:02:40.770Z,4.64
2022-11-28T12:05:18.262Z,4.68
2022-11-28T12:08:02.001Z,4.71
2022-11-28T12:10:30.935Z,4.76
2022-11-28T12:12:57.756Z,4.83
2022-11-28T12:18:26.209Z,4.77
2022-11-28T12:20:56.110Z,4.79
2022-11-28T12:23:26.271Z,4.80
2022-11-28T12:26:05.365Z,4.79
2022-11-28T12:28:39.602Z,4.82
2022-11-28T12:31:10.001Z,4.82
2022-11-28T12:33:55.808Z,4.82
2022-11-28T12:36:22.773Z,4.76
2022-11-28T12:38:59.665Z,4.79
2022-11-28T12:41:32.711Z,4.60
2022-11-28T12:44:14.719Z,4.63
2022-11-28T12:46:44.823Z,4.52
2022-11-28T12:49:17.777Z,4.51
2022-11-28T12:51:52.102Z,4.47
2022-11-28T12:54:41.082Z,4.44
2022-11-28T12:57:26.887Z,4.40
2022-11-28T12:59:56.963Z,4.34
2022-11-28T13:02:33.483Z,4.33
2022-11-28T13:05:10.754Z,4.31
2022-11-28T13:07:53.345Z,4.35
2022-11-28T13:10:27.575Z,4.28
2022-11-28T13:12:57.515Z,4.33
2022-11-28T13:15:43.076Z,4.20
2022-11-28T13:18:16.072Z,4.24
2022-11-28T13:20:43.602Z,4.20
2022-11-28T13:23:16.528Z,4.22
2022-11-28T13:25:53.985Z,4.20
2022-11-28T13:44:45.268Z,4.16
2022-11-28T13:47:21.498Z,4.17
2022-11-28T13:52:31.915Z,4.11
2022-11-28T13:55:23.987Z,4.03
2022-11-28T14:03:18.405Z,3.94
2022-11-28T14:08:28.019Z,3.90
2022-11-28T14:11:10.755Z,3.89
2022-11-28T14:13:48.442Z,3.86
2022-11-28T14:16:18.755Z,3.88
2022-11-28T14:21:38.214Z,3.93
2022-11-28T14:24:14.782Z,3.92
2022-11-28T14:26:43.252Z,3.93
2022-11-28T14:29:23.591Z,3.95
2022-11-28T14:34:40.813Z,3.95
2022-11-28T14:37:19.871Z,3.96
2022-11-28T14:39:47.787Z,4.03
2022-11-28T14:42:30.466Z,4.08
2022-11-28T14:45:08.363Z,4.09
2022-11-28T14:50:21.502Z,4.11
2022-11-28T14:55:52.306Z,4.12
2022-11-28T14:58:22.313Z,4.10
2022-11-28T15:03:46.051Z,4.17
2022-11-28T15:14:23.510Z,4.17
2022-11-28T15:28:32.693Z,4.15
2022-11-28T15:31:00.639Z,4.15
2022-11-28T15:33:27.748Z,4.17
2022-11-28T15:38:44.612Z,4.11
2022-11-28T15:46:40.102Z,4.16
2022-11-28T15:49:20.825Z,4.15
2022-11-28T15:51:51.135Z,4.13
2022-11-28T15:54:42.153Z,4.12
2022-11-28T15:57:24.126Z,4.12
2022-11-28T15:59:51.138Z,4.11
2022-11-28T16:02:36.236Z,4.09
2022-11-28T16:05:07.696Z,4.11
2022-11-28T16:07:40.502Z,4.10
2022-11-28T16:10:08.829Z,4.12
2022-11-28T16:12:36.626Z,4.12
2022-11-28T16:15:06.217Z,4.14
2022-11-28T16:17:33.313Z,4.14
2022-11-28T16:20:02.526Z,4.13
2022-11-28T16:22:36.634Z,4.14
2022-11-28T16:25:19.294Z,4.12
2022-11-28T16:27:49.235Z,4.10
2022-11-28T16:30:27.028Z,4.12
2022-11-28T16:35:40.609Z,4.16
2022-11-28T16:38:15.908Z,4.14
2022-11-28T16:40:42.982Z,4.15
2022-11-28T16:43:20.500Z,4.17
2022-11-28T16:45:48.184Z,4.17
2022-11-28T16:48:19.644Z,4.18
2022-11-28T16:51:07.492Z,4.17
2022-11-28T16:53:58.566Z,4.20
2022-11-28T16:56:46.130Z,4.21
2022-11-28T16:59:21.259Z,4.21
2022-11-28T17:01:49.270Z,4.23
2022-11-28T17:04:27.392Z,4.23
2022-11-28T17:09:37.283Z,4.24
2022-11-28T17:12:05.598Z,4.21
2022-11-28T17:14:32.766Z,4.21
2022-11-28T17:17:01.173Z,4.21
2022-11-28T17:19:28.532Z,4.20
2022-11-28T17:21:57.383Z,4.20
2022-11-28T17:24:28.511Z,4.17
2022-11-28T17:26:56.985Z,4.17
2022-11-28T17:29:25.515Z,4.16
2022-11-28T17:31:55.497Z,4.13
2022-11-28T17:34:30.511Z,4.15
2022-11-28T17:36:58.074Z,4.15
2022-11-28T17:39:24.904Z,4.16
2022-11-28T17:41:51.944Z,4.16
2022-11-28T17:44:20.080Z,4.17
2022-11-28T17:46:47.187Z,4.13
2022-11-28T17:49:14.119Z,4.13
2022-11-28T17:51:44.019Z,4.15
2022-11-28T17:54:13.658Z,4.15
2022-11-28T17:56:40.618Z,4.16
2022-11-28T18:02:29.517Z,4.18
2022-11-28T18:04:56.785Z,4.19
2022-11-28T18:07:23.862Z,4.19
2022-11-28T18:09:51.652Z,4.19
2022-11-28T18:12:19.902Z,4.22
2022-11-28T18:14:47.083Z,4.22
2022-11-28T18:17:14.051Z,4.22
2022-11-28T18:19:41.229Z,4.22
2022-11-28T18:22:09.168Z,4.24
2022-11-28T18:24:36.843Z,4.29
2022-11-28T18:27:05.404Z,4.26
2022-11-28T18:29:37.888Z,4.27
2022-11-28T18:39:04.275Z,4.25
2022-11-28T18:41:31.234Z,4.24
2022-11-28T18:44:01.025Z,4.26
2022-11-28T18:46:28.729Z,4.26
2022-11-28T18:48:55.826Z,4.27
2022-11-28T18:51:23.763Z,4.28
2022-11-28T18:53:52.887Z,4.29
2022-11-28T18:56:19.972Z,4.30
2022-11-28T18:58:48.508Z,4.31
2022-11-28T19:01:18.321Z,4.33
2022-11-28T19:03:51.182Z,4.33
2022-11-28T19:06:19.121Z,4.32
2022-11-28T19:08:46.003Z,4.31
2022-11-28T19:11:15.410Z,4.33
2022-11-28T19:13:45.616Z,4.31
2022-11-28T19:16:14.419Z,4.30
2022-11-28T19:18:41.309Z,4.31
2022-11-28T19:21:08.723Z,4.33
2022-11-28T19:23:35.883Z,4.33
2022-11-28T19:26:06.615Z,4.31
2022-11-28T19:28:34.758Z,4.32
2022-11-28T19:31:05.431Z,4.31
2022-11-28T19:33:32.500Z,4.32
2022-11-28T19:36:02.968Z,4.35
2022-11-28T19:38:29.932Z,4.35
2022-11-28T19:40:56.655Z,4.34
2022-11-28T19:43:23.801Z,4.35
2022-11-28T19:45:54.562Z,4.37
2022-11-28T19:48:21.519Z,4.39
2022-11-28T19:50:49.415Z,4.38
2022-11-28T19:53:16.158Z,4.36
2022-11-28T19:55:42.943Z,4.34
2022-11-28T19:58:09.778Z,4.33
2022-11-28T20:00:36.924Z,4.35
2022-11-28T20:03:03.818Z,4.37
2022-11-28T20:05:31.121Z,4.39
2022-11-28T20:07:58.859Z,4.40
2022-11-28T20:10:26.574Z,4.41
2022-11-28T20:12:54.972Z,4.41
2022-11-28T20:15:22.129Z,4.41
2022-11-28T20:17:49.072Z,4.43
2022-11-28T20:23:01.405Z,4.44
2022-11-28T20:25:28.475Z,4.43
2022-11-28T20:27:55.368Z,4.41
2022-11-28T20:30:22.149Z,4.42
2022-11-28T20:32:48.909Z,4.44
2022-11-28T20:35:15.813Z,4.46
2022-11-28T20:37:42.562Z,4.49
2022-11-28T20:42:46.971Z,4.45
2022-11-28T20:45:13.797Z,4.44
2022-11-28T20:47:48.266Z,4.43
2022-11-28T20:50:16.574Z,4.44
2022-11-28T20:55:23.899Z,4.45
2022-11-28T20:57:50.711Z,4.45
2022-11-28T21:00:19.434Z,4.46
2022-11-28T21:02:49.068Z,4.46
2022-11-28T21:05:15.949Z,4.48
2022-11-28T21:07:42.831Z,4.50
2022-11-28T21:10:09.746Z,4.51
2022-11-28T21:12:36.585Z,4.52
2022-11-28T21:15:03.543Z,4.51
2022-11-28T21:17:30.314Z,4.55
2022-11-28T21:19:57.146Z,4.54
2022-11-28T21:22:23.913Z,4.54
2022-11-28T21:24:51.731Z,4.58
2022-11-28T21:27:21.585Z,4.59
2022-11-28T21:29:52.287Z,4.59
2022-11-28T21:32:19.393Z,4.64
2022-11-28T21:34:46.757Z,4.68
2022-11-28T21:37:13.614Z,4.71
2022-11-28T21:39:40.572Z,4.77
2022-11-28T21:42:07.494Z,4.77
2022-11-28T21:44:34.488Z,4.79
2022-11-28T21:47:01.113Z,4.81
2022-11-28T21:49:27.900Z,4.86
2022-11-28T21:51:57.140Z,4.91
2022-11-28T21:54:23.973Z,4.92
2022-11-28T21:56:50.882Z,4.90
2022-11-28T21:59:17.617Z,4.92
2022-11-28T22:01:44.525Z,4.93
2022-11-28T22:04:11.344Z,4.95
2022-11-28T22:06:38.250Z,4.96
2022-11-28T22:09:09.165Z,4.98
2022-11-28T22:11:36.681Z,5.00
2022-11-28T22:14:03.448Z,5.03
2022-11-28T22:16:32.275Z,5.06
2022-11-28T22:19:01.598Z,5.09
2022-11-28T22:24:18.030Z,5.18
2022-11-28T22:26:44.901Z,5.19
2022-11-28T22:29:11.963Z,5.20
2022-11-28T22:31:39.476Z,5.22
2022-11-28T22:34:06.324Z,5.24
2022-11-28T22:36:34.559Z,5.25
2022-11-28T22:39:02.897Z,5.28
2022-11-28T22:41:30.038Z,5.29
2022-11-28T22:43:57.834Z,5.29
2022-11-28T22:46:25.026Z,5.39
2022-11-28T22:48:52.253Z,5.37
2022-11-28T22:51:20.541Z,5.33
2022-11-28T22:53:47.553Z,5.33
2022-11-28T22:56:15.067Z,5.35
2022-11-28T22:58:43.119Z,5.35
2022-11-28T23:01:11.498Z,5.40
2022-11-28T23:03:38.425Z,5.40
2022-11-28T23:06:09.919Z,5.42
2022-11-28T23:08:36.651Z,5.43
2022-11-28T23:11:07.480Z,5.40
2022-11-28T23:13:34.921Z,5.39
2022-11-28T23:16:19.667Z,5.41
2022-11-28T23:18:47.888Z,5.43
2022-11-28T23:21:14.911Z,5.42
2022-11-28T23:23:41.781Z,5.41
2022-11-28T23:26:21.115Z,5.41
2022-11-28T23:28:47.917Z,5.42
2022-11-28T23:31:16.824Z,5.42
2022-11-28T23:33:44.021Z,5.41
2022-11-28T23:36:20.991Z,5.42
2022-11-28T23:38:48.298Z,5.41
2022-11-28T23:41:16.214Z,5.41
2022-11-28T23:43:43.058Z,5.43
2022-11-28T23:46:10.572Z,5.43
2022-11-28T23:48:38.578Z,5.44
2022-11-28T23:51:07.041Z,5.43
2022-11-28T23:53:34.176Z,5.42
2022-11-28T23:56:07.035Z,5.40
2022-11-28T23:58:34.169Z,5.43
